Terminal Aerodrome Forecast
Issued by NWS

Home | Current Version | Previous Version | Text Only | Print | Product List | Glossary On
Versions: 1 2 3 4 5 6 7 8 9 10 11 12 13 14 15 16 17 18 19 20 21 22 23 24 25 26 27 28
000
FTUS41 KBGM 290500
TAFITH
TAF
KITH 290530Z 2906/3006 VRB03KT P6SM BKN040
     FM290800 13005KT P6SM SCT040 OVC100
     FM291400 16012G22KT P6SM SCT035 OVC070
     FM300000 16012KT P6SM SCT012 OVC040=

USA.gov is the U.S. government's official web portal to all federal, state and local government web resources and services.